ADDS METAR Data INFO
IDs: Format: Raw Decoded Include TAF

Data at: 0219 UTC 14 Dec 2017

KMCN 140153Z AUTO 22005KT 10SM CLR 06/M06 A2992 RMK AO2 SLP131 T00561056
KMCN 140053Z 21005KT 10SM CLR 06/M06 A2991 RMK AO2 SLP130 T00611061
KMCN 132353Z 22006KT 10SM CLR 07/M06 A2995 RMK AO2 SLP141 T00671061 10117 20067 55008
KMCN 132253Z 20005KT 10SM CLR 08/M08 A2994 RMK AO2 SLP139 T00831078
KMCN 132153Z 23006KT 10SM CLR 11/M10 A2996 RMK AO2 SLP146 T01061100
KMCN 132053Z 23010KT 10SM CLR 11/M11 A2997 RMK AO2 SLP149 T01111111 56026
KMCN 131953Z 23008KT 10SM CLR 11/M12 A2998 RMK AO2 SLP151 T01111122
KMCN 131853Z 27009KT 10SM CLR 11/M12 A3001 RMK AO2 SLP163 T01061117
KMCN 131753Z 27010KT 10SM CLR 09/M13 A3005 RMK AO2 SLP175 T00941128 10094 21011 58021
KMCN 131653Z COR 25005KT 10SM CLR 08/M13 A3009 RMK AO2 SLP189 T00831128
KMCN 131553Z 27006KT 10SM CLR 06/M12 A3011 RMK AO2 SLP197 T00611117
KMCN 131453Z 32006KT 10SM CLR 04/M11 A3011 RMK AO2 SLP198 T00391111 51011
KMCN 131353Z 28006KT 10SM CLR 02/M09 A3010 RMK AO2 SLP194 T00171089
KMCN 131253Z 29006KT 10SM CLR M01/M08 A3010 RMK AO2 SLP192 T10061083
KMCN 131153Z AUTO 30006KT 10SM CLR M01/M09 A3008 RMK AO2 SLP187 T10061094 10044 21006 53008
KMCN 131053Z AUTO 32009KT 10SM CLR 01/M09 A3006 RMK AO2 SLP180 T00061094
KMCN 130953Z AUTO 31005KT 10SM CLR 01/M08 A3006 RMK AO2 SLP178 T00061078
KMCN 130853Z AUTO 32010KT 10SM CLR 02/M08 A3006 RMK AO2 SLP177 T00221083 53016
KMCN 130753Z AUTO 32004KT 10SM CLR 02/M06 A3004 RMK AO2 SLP172 T00171061
KMCN 130653Z AUTO 30008KT 10SM CLR 03/M06 A3001 RMK AO2 SLP161 T00331056
KMCN 130553Z AUTO 31010KT 10SM CLR 04/M04 A3001 RMK AO2 SLP160 T00391039 10078 20028 51005
KMCN 130453Z AUTO 28007KT 10SM CLR 03/M02 A3001 RMK AO2 SLP159 T00331017 401500028
KMCN 130353Z AUTO 29006KT 10SM CLR 04/M02 A3000 RMK AO2 SLP158 T00391017
KMCN 130253Z AUTO 27007KT 10SM CLR 04/M01 A2999 RMK AO2 SLP155 T00441006 53010
KMCN 130153Z AUTO 28006KT 10SM CLR 05/M01 A2998 RMK AO2 SLP150 T00501006
KMCN 130053Z 29006KT 10SM CLR 07/M01 A2997 RMK AO2 SLP148 T00671006
KMCN 122353Z 26004KT 10SM CLR 07/M01 A2996 RMK AO2 SLP144 T00721006 10150 20072 53017
KMCN 122253Z 30007KT 10SM CLR 09/M01 A2994 RMK AO2 SLP137 T00891011
KMCN 122153Z 30013G21KT 10SM CLR 11/M01 A2992 RMK AO2 SLP133 T01061011
KMCN 122053Z 34018G23KT 10SM CLR 12/M01 A2991 RMK AO2 PK WND 32030/1955 SLP126 T01221006 53011
KMCN 121953Z 31016G28KT 10SM CLR 13/M01 A2989 RMK AO2 PK WND 33028/1946 SLP121 T01331006
KMCN 121853Z 32014G25KT 10SM CLR 14/M01 A2988 RMK AO2 PK WND 31028/1819 SLP116 T01391006
KMCN 121753Z 31018G25KT 10SM CLR 14/M01 A2988 RMK AO2 PK WND 33028/1735 SLP115 T01441011 10144 20033 58005
KMCN 121653Z 30015G29KT 10SM CLR 14/00 A2990 RMK AO2 PK WND 29029/1647 SLP122 T01440000
KMCN 121553Z 32009G19KT 10SM CLR 13/03 A2991 RMK AO2 SLP127 T01280028
KMCN 121453Z 31011KT 10SM CLR 11/04 A2989 RMK AO2 SLP120 T01060039 53004